Weather at Flatval Airfield

Public forecast

Using degrees Celsius for public forecast. Weather courtesy of forecast.io.

Closest aviation weather report (METAR) to Flatval Airfield

Closest report is Ørland Airport, 22.4 nm (41.6 km) E.

2024/05/19 22:50 (retrieved 32 minutes ago)

ENOL 192250Z 27002KT 9999 FEW030 05/00 Q1021

Closest aviation forecast (TAF) to Flatval Airfield

Closest forecast is Ørland Airport, 22.4 nm (41.6 km) E.

2024/05/19 18:36 (retrieved 5 hours ago)

TAF ENOL 191700Z 1918/2018 30012KT 9999 SCT030 BECMG 1921/1924 10008KT BECMG 2010/2013 01010KT